Time;durP1;ratioP1;P1;durP2;ratioP2;P2;SDS_P1;SDS_P2;PMS_P1;PMS_P2;Temp;Humidity;BMP_temperature;BMP_pressure;BME280_temperature;BME280_humidity;BME280_pressure;Samples;Min_cycle;Max_cycle;Signal;HPM_P1;HPM_P2
2021/08/20 00:01:20;;;;;;;;;;;15.70;99.90;;;;;;5092581;28;19944;-77
2021/08/20 00:03:46;;;;;;;;;;;15.60;99.90;;;;;;5092240;28;19908;-77
2021/08/20 00:06:11;;;;;;;;;;;15.70;99.90;;;;;;5091817;28;19957;-77
2021/08/20 00:08:37;;;;;;;;;;;15.70;99.90;;;;;;5089664;28;20325;-78
2021/08/20 00:11:03;;;;;;;;;;;15.70;99.90;;;;;;5091908;28;19953;-77
2021/08/20 00:13:31;;;;;;;;;;;15.60;99.90;;;;;;5092606;28;19916;-77
2021/08/20 00:15:57;;;;;;;;;;;15.60;99.90;;;;;;5092094;28;19915;-78
2021/08/20 00:18:23;;;;;;;;;;;15.60;99.90;;;;;;5091585;28;19999;-77
2021/08/20 00:20:49;;;;;;;;;;;15.60;99.90;;;;;;5092056;28;19987;-77
2021/08/20 00:23:14;;;;;;;;;;;15.60;99.90;;;;;;5091996;28;20124;-75
2021/08/20 00:25:40;;;;;;;;;;;15.60;99.90;;;;;;5092324;28;19930;-75
2021/08/20 00:28:05;;;;;;;;;;;15.60;99.90;;;;;;5091445;28;19912;-75
2021/08/20 00:30:31;;;;;;;;;;;15.60;99.90;;;;;;5091757;28;19934;-75
2021/08/20 00:32:56;;;;;;;;;;;15.60;99.90;;;;;;5091670;28;20365;-77
2021/08/20 00:35:22;;;;;;;;;;;15.60;99.90;;;;;;5092053;28;19912;-78
2021/08/20 00:37:47;;;;;;;;;;;15.70;99.90;;;;;;5088896;28;19908;-77
2021/08/20 00:40:13;;;;;;;;;;;15.60;99.90;;;;;;5091452;28;19912;-77
2021/08/20 00:42:38;;;;;;;;;;;15.60;99.90;;;;;;5092118;28;19952;-77
2021/08/20 00:45:04;;;;;;;;;;;15.60;99.90;;;;;;5091450;28;20359;-77
2021/08/20 00:47:30;;;;;;;;;;;15.60;99.90;;;;;;5091197;28;19912;-78
2021/08/20 00:49:55;;;;;;;;;;;15.60;99.90;;;;;;5091824;28;20371;-77
2021/08/20 00:52:22;;;;;;;;;;;15.60;99.90;;;;;;5091317;28;19965;-78
2021/08/20 00:54:47;;;;;;;;;;;15.60;99.90;;;;;;5091486;28;19908;-78
2021/08/20 00:57:14;;;;;;;;;;;15.60;99.90;;;;;;5091070;28;20003;-77
2021/08/20 00:59:39;;;;;;;;;;;15.60;99.90;;;;;;5091525;28;19908;-77
2021/08/20 01:02:05;;;;;;;;;;;15.70;99.90;;;;;;5091479;28;19908;-77
2021/08/20 01:04:30;;;;;;;;;;;15.70;99.90;;;;;;5091438;28;19908;-77
2021/08/20 01:06:56;;;;;;;;;;;15.70;99.90;;;;;;5088934;28;20272;-78
2021/08/20 01:09:22;;;;;;;;;;;15.70;99.90;;;;;;5091205;28;19912;-77
2021/08/20 01:11:49;;;;;;;;;;;15.70;99.90;;;;;;5094535;28;19923;-77
2021/08/20 01:14:25;;;;;;;;;;;15.70;99.90;;;;;;5095681;28;20365;-77
2021/08/20 01:16:51;;;;;;;;;;;15.80;99.90;;;;;;5095449;28;19915;-77
2021/08/20 01:19:17;;;;;;;;;;;15.80;99.90;;;;;;5095502;28;19908;-77
2021/08/20 01:21:42;;;;;;;;;;;15.80;99.90;;;;;;5095397;28;19908;-77
2021/08/20 01:24:08;;;;;;;;;;;15.80;99.90;;;;;;5095253;28;19908;-77
2021/08/20 01:26:33;;;;;;;;;;;15.80;99.90;;;;;;5094954;28;19908;-77
2021/08/20 01:28:59;;;;;;;;;;;15.70;99.90;;;;;;5095287;28;19914;-77
2021/08/20 01:31:25;;;;;;;;;;;15.70;99.90;;;;;;5093807;28;19915;-77
2021/08/20 01:33:50;;;;;;;;;;;15.70;99.90;;;;;;5094999;28;20011;-77
2021/08/20 01:36:16;;;;;;;;;;;15.70;99.90;;;;;;5094775;28;20315;-78
2021/08/20 01:38:51;;;;;;;;;;;15.70;99.90;;;;;;5109188;28;19907;-77
2021/08/20 01:41:18;;;;;;;;;;;15.70;99.90;;;;;;5093692;28;20273;-77
2021/08/20 01:43:44;;;;;;;;;;;15.70;99.90;;;;;;5095061;28;19954;-77
2021/08/20 01:46:10;;;;;;;;;;;15.70;99.90;;;;;;5094464;28;19916;-77
2021/08/20 01:48:35;;;;;;;;;;;15.70;99.90;;;;;;5094921;28;20053;-77
2021/08/20 01:51:01;;;;;;;;;;;15.70;99.90;;;;;;5094715;28;19915;-78
2021/08/20 01:53:26;;;;;;;;;;;15.70;99.90;;;;;;5094582;28;20011;-77
2021/08/20 01:55:52;;;;;;;;;;;15.70;99.90;;;;;;5087748;28;20313;-77
2021/08/20 01:58:17;;;;;;;;;;;15.70;99.90;;;;;;5094430;28;19908;-78
2021/08/20 02:00:43;;;;;;;;;;;15.70;99.90;;;;;;5094946;28;19915;-77
2021/08/20 02:03:09;;;;;;;;;;;15.60;99.90;;;;;;5088486;28;19908;-77
2021/08/20 02:05:35;;;;;;;;;;;15.60;99.90;;;;;;5109354;28;19957;-78
2021/08/20 02:08:00;;;;;;;;;;;15.60;99.90;;;;;;5114364;28;19912;-78
2021/08/20 02:10:26;;;;;;;;;;;15.60;99.90;;;;;;5114907;28;19959;-77
2021/08/20 02:12:51;;;;;;;;;;;15.60;99.90;;;;;;5114971;28;20018;-77
2021/08/20 02:15:17;;;;;;;;;;;15.60;99.90;;;;;;5114688;28;19915;-78
2021/08/20 02:17:43;;;;;;;;;;;15.60;99.90;;;;;;5114226;28;19908;-77
2021/08/20 02:20:08;;;;;;;;;;;15.50;99.90;;;;;;5114751;28;19912;-77
2021/08/20 02:22:34;;;;;;;;;;;15.50;99.90;;;;;;5113439;28;19911;-77
2021/08/20 02:25:00;;;;;;;;;;;15.50;99.90;;;;;;5114565;28;19908;-78
2021/08/20 02:27:25;;;;;;;;;;;15.50;99.90;;;;;;5114074;28;19908;-77
2021/08/20 02:29:50;;;;;;;;;;;15.50;99.90;;;;;;5114455;28;19943;-77
2021/08/20 02:32:16;;;;;;;;;;;15.50;99.90;;;;;;5099026;28;19912;-77
2021/08/20 02:34:42;;;;;;;;;;;15.50;99.90;;;;;;5093837;28;19908;-78
2021/08/20 02:37:07;;;;;;;;;;;15.50;99.90;;;;;;5093399;28;20002;-77
2021/08/20 02:39:33;;;;;;;;;;;15.50;99.90;;;;;;5093954;28;20267;-77
2021/08/20 02:41:59;;;;;;;;;;;15.50;99.90;;;;;;5092521;28;19908;-77
2021/08/20 02:44:25;;;;;;;;;;;15.50;99.90;;;;;;5094135;28;20344;-77
2021/08/20 02:46:50;;;;;;;;;;;15.50;99.90;;;;;;5093136;28;19977;-77
2021/08/20 02:49:16;;;;;;;;;;;15.50;99.90;;;;;;5093454;28;19958;-78
2021/08/20 02:51:41;;;;;;;;;;;15.50;99.90;;;;;;5093355;28;19930;-77
2021/08/20 02:54:07;;;;;;;;;;;15.50;99.90;;;;;;5091289;28;19961;-77
2021/08/20 02:56:32;;;;;;;;;;;15.50;99.90;;;;;;5088343;28;19954;-77
2021/08/20 02:58:58;;;;;;;;;;;15.50;99.90;;;;;;5093457;28;19908;-77
2021/08/20 03:01:23;;;;;;;;;;;15.50;99.90;;;;;;5093316;28;20012;-77
2021/08/20 03:03:49;;;;;;;;;;;15.50;99.90;;;;;;5093476;28;19908;-78
2021/08/20 03:06:15;;;;;;;;;;;15.50;99.90;;;;;;5092526;28;19962;-78
2021/08/20 03:08:41;;;;;;;;;;;15.50;99.90;;;;;;5093382;28;19908;-75
2021/08/20 03:11:06;;;;;;;;;;;15.50;99.90;;;;;;5092976;28;19908;-75
2021/08/20 03:13:31;;;;;;;;;;;15.50;99.90;;;;;;5093187;28;19963;-75
2021/08/20 03:15:57;;;;;;;;;;;15.40;99.90;;;;;;5093158;28;19969;-75
2021/08/20 03:18:23;;;;;;;;;;;15.50;99.90;;;;;;5092721;28;19961;-75
2021/08/20 03:20:48;;;;;;;;;;;15.50;99.90;;;;;;5093162;28;20004;-74
2021/08/20 03:23:14;;;;;;;;;;;15.50;99.90;;;;;;5099490;28;19912;-74
2021/08/20 03:25:39;;;;;;;;;;;15.50;99.90;;;;;;5095394;28;19919;-76
2021/08/20 03:28:07;;;;;;;;;;;15.50;99.90;;;;;;5101566;28;20097;-76
2021/08/20 03:30:32;;;;;;;;;;;15.50;99.90;;;;;;5101412;28;20281;-74
2021/08/20 03:32:58;;;;;;;;;;;15.50;99.90;;;;;;5101039;28;19912;-74
2021/08/20 03:35:24;;;;;;;;;;;15.40;99.90;;;;;;5101190;28;19919;-74
2021/08/20 03:37:49;;;;;;;;;;;15.50;99.90;;;;;;5094816;28;19915;-75
2021/08/20 03:40:15;;;;;;;;;;;15.50;99.90;;;;;;5093042;28;19915;-75
2021/08/20 03:42:40;;;;;;;;;;;15.50;99.90;;;;;;5092760;28;20094;-75
2021/08/20 03:45:06;;;;;;;;;;;15.50;99.90;;;;;;5092424;28;19915;-75
2021/08/20 03:47:32;;;;;;;;;;;15.50;99.90;;;;;;5092226;28;19912;-75
2021/08/20 03:49:57;;;;;;;;;;;15.50;99.90;;;;;;5092405;28;19915;-76
2021/08/20 03:52:23;;;;;;;;;;;15.50;99.90;;;;;;5092369;28;19994;-75
2021/08/20 03:54:48;;;;;;;;;;;15.50;99.90;;;;;;5086548;28;19912;-75
2021/08/20 03:57:14;;;;;;;;;;;15.50;99.90;;;;;;5091767;28;20284;-75
2021/08/20 03:59:39;;;;;;;;;;;15.50;99.90;;;;;;5092242;28;19908;-76
2021/08/20 04:02:05;;;;;;;;;;;15.50;99.90;;;;;;5092300;28;19919;-75
2021/08/20 04:04:31;;;;;;;;;;;15.50;99.90;;;;;;5092111;28;20281;-75
2021/08/20 04:06:56;;;;;;;;;;;15.40;99.90;;;;;;5092104;28;19912;-75
2021/08/20 04:09:22;;;;;;;;;;;15.40;99.90;;;;;;5092127;28;19908;-75
2021/08/20 04:11:48;;;;;;;;;;;15.30;99.90;;;;;;5091863;28;19915;-76
2021/08/20 04:14:13;;;;;;;;;;;15.30;99.90;;;;;;5092379;28;19919;-75
2021/08/20 04:16:40;;;;;;;;;;;15.20;99.90;;;;;;5091652;28;19908;-75
2021/08/20 04:19:05;;;;;;;;;;;15.20;99.90;;;;;;5091870;28;19908;-75
2021/08/20 04:21:31;;;;;;;;;;;15.10;99.90;;;;;;5091842;28;19908;-75
2021/08/20 04:23:57;;;;;;;;;;;15.10;99.90;;;;;;5091964;28;19969;-75
2021/08/20 04:26:22;;;;;;;;;;;15.10;99.90;;;;;;5085356;28;19951;-75
2021/08/20 04:28:51;;;;;;;;;;;15.00;99.90;;;;;;5091707;28;19916;-75
2021/08/20 04:31:16;;;;;;;;;;;15.00;99.90;;;;;;5091795;28;19908;-75
2021/08/20 04:33:42;;;;;;;;;;;15.00;99.90;;;;;;5092047;28;20372;-75
2021/08/20 04:36:07;;;;;;;;;;;15.00;99.90;;;;;;5091433;28;19908;-75
2021/08/20 04:38:33;;;;;;;;;;;15.00;99.90;;;;;;5091842;28;19938;-75
2021/08/20 04:40:58;;;;;;;;;;;15.00;99.90;;;;;;5091574;28;20348;-76
2021/08/20 04:43:24;;;;;;;;;;;15.10;99.90;;;;;;5091612;28;20003;-75
2021/08/20 04:45:49;;;;;;;;;;;15.10;99.90;;;;;;5090998;28;19916;-75
2021/08/20 04:48:15;;;;;;;;;;;15.20;99.90;;;;;;5091124;28;19908;-75
2021/08/20 04:50:41;;;;;;;;;;;15.20;99.90;;;;;;5091402;28;19908;-75
2021/08/20 04:53:06;;;;;;;;;;;15.20;99.90;;;;;;5091440;28;20034;-75
2021/08/20 04:55:32;;;;;;;;;;;15.20;99.90;;;;;;5085353;28;20277;-76
2021/08/20 04:57:57;;;;;;;;;;;15.20;99.90;;;;;;5090776;28;19914;-75
2021/08/20 05:00:23;;;;;;;;;;;15.30;99.90;;;;;;5089955;28;19912;-76
2021/08/20 05:02:48;;;;;;;;;;;15.30;99.90;;;;;;5091286;28;20291;-76
2021/08/20 05:05:14;;;;;;;;;;;15.30;99.90;;;;;;5091406;28;19908;-75
2021/08/20 05:07:40;;;;;;;;;;;15.40;99.90;;;;;;5091124;28;19908;-76
2021/08/20 05:10:09;;;;;;;;;;;15.40;99.90;;;;;;5091352;28;19908;-75
2021/08/20 05:12:38;;;;;;;;;;;15.40;99.90;;;;;;5091219;28;20266;-75
2021/08/20 05:15:04;;;;;;;;;;;15.40;99.90;;;;;;5091369;28;20453;-76
2021/08/20 05:17:30;;;;;;;;;;;15.40;99.90;;;;;;5090800;28;19944;-75
2021/08/20 05:19:55;;;;;;;;;;;15.50;99.90;;;;;;5091148;28;20336;-75
2021/08/20 05:22:21;;;;;;;;;;;15.50;99.90;;;;;;5091156;28;19908;-75
2021/08/20 05:24:46;;;;;;;;;;;15.60;99.90;;;;;;5085020;28;20280;-76
2021/08/20 05:27:12;;;;;;;;;;;15.60;99.90;;;;;;5090483;28;19923;-75
2021/08/20 05:29:37;;;;;;;;;;;15.70;99.90;;;;;;5089613;28;19908;-76
2021/08/20 05:32:03;;;;;;;;;;;15.70;99.90;;;;;;5080026;28;20425;-77
2021/08/20 05:34:28;;;;;;;;;;;15.70;99.90;;;;;;5089967;28;19908;-76
2021/08/20 05:36:54;;;;;;;;;;;15.80;99.90;;;;;;5086280;28;19912;-76
2021/08/20 05:39:19;;;;;;;;;;;15.90;99.90;;;;;;5090725;28;19958;-75
2021/08/20 05:41:45;;;;;;;;;;;15.90;99.90;;;;;;5090762;28;19931;-75
2021/08/20 05:44:10;;;;;;;;;;;16.00;99.90;;;;;;5089363;28;19951;-75
2021/08/20 05:46:36;;;;;;;;;;;16.10;99.90;;;;;;5078565;28;20292;-76
2021/08/20 05:49:05;;;;;;;;;;;16.20;99.90;;;;;;5090146;28;19908;-75
2021/08/20 05:51:31;;;;;;;;;;;16.20;99.90;;;;;;5091033;28;19954;-75
2021/08/20 05:53:56;;;;;;;;;;;16.30;99.90;;;;;;5090606;28;20301;-76
2021/08/20 05:56:22;;;;;;;;;;;16.40;99.90;;;;;;5084057;28;20089;-75
2021/08/20 05:58:48;;;;;;;;;;;16.50;99.90;;;;;;5093812;28;19908;-75
2021/08/20 06:01:14;;;;;;;;;;;16.50;99.90;;;;;;5090411;28;20068;-75
2021/08/20 06:03:39;;;;;;;;;;;16.60;99.90;;;;;;5094218;28;19915;-75
2021/08/20 06:06:05;;;;;;;;;;;16.80;99.90;;;;;;5094002;28;19908;-76
2021/08/20 06:08:30;;;;;;;;;;;16.90;99.90;;;;;;5094438;28;20418;-75
2021/08/20 06:10:56;;;;;;;;;;;17.00;99.90;;;;;;5094133;28;19912;-75
2021/08/20 06:13:21;;;;;;;;;;;17.10;99.90;;;;;;5094306;28;19912;-75
2021/08/20 06:15:47;;;;;;;;;;;17.20;99.90;;;;;;5093735;28;20254;-76
2021/08/20 06:18:12;;;;;;;;;;;17.20;99.90;;;;;;5093880;28;19961;-75
2021/08/20 06:20:38;;;;;;;;;;;17.20;99.90;;;;;;5094121;28;19947;-76
2021/08/20 06:23:03;;;;;;;;;;;17.30;99.90;;;;;;5094086;28;19912;-76
2021/08/20 06:25:29;;;;;;;;;;;17.30;99.90;;;;;;5087732;28;19912;-76
2021/08/20 06:27:54;;;;;;;;;;;17.40;99.90;;;;;;5093416;28;19908;-76
2021/08/20 06:30:20;;;;;;;;;;;17.50;99.90;;;;;;5093528;28;19954;-76
2021/08/20 06:32:45;;;;;;;;;;;17.60;99.90;;;;;;5086367;28;19932;-76
2021/08/20 06:35:11;;;;;;;;;;;17.70;99.90;;;;;;5093739;28;19909;-76
2021/08/20 06:37:36;;;;;;;;;;;17.80;99.90;;;;;;5093512;28;19912;-75
2021/08/20 06:40:03;;;;;;;;;;;17.80;99.90;;;;;;5093746;28;19915;-75
2021/08/20 06:42:28;;;;;;;;;;;17.80;99.90;;;;;;5094697;28;20273;-75
2021/08/20 06:44:54;;;;;;;;;;;18.00;99.90;;;;;;5093851;28;19974;-76
2021/08/20 06:47:19;;;;;;;;;;;18.10;99.90;;;;;;5091810;28;19916;-76
2021/08/20 06:49:45;;;;;;;;;;;18.20;99.90;;;;;;5092364;28;19970;-76
2021/08/20 06:52:11;;;;;;;;;;;18.30;99.90;;;;;;5092687;28;19912;-76
2021/08/20 06:54:36;;;;;;;;;;;18.30;99.90;;;;;;5088508;28;19909;-76
2021/08/20 06:57:02;;;;;;;;;;;18.30;99.90;;;;;;5092740;28;20305;-76
2021/08/20 06:59:27;;;;;;;;;;;18.40;99.90;;;;;;5093585;28;19915;-76
2021/08/20 07:01:53;;;;;;;;;;;18.60;99.90;;;;;;5093514;28;20269;-76
2021/08/20 07:04:18;;;;;;;;;;;18.70;99.90;;;;;;5093440;28;19908;-77
2021/08/20 07:06:44;;;;;;;;;;;18.80;99.90;;;;;;5092839;28;20442;-76
2021/08/20 07:09:09;;;;;;;;;;;18.90;99.90;;;;;;5092839;28;20377;-76
2021/08/20 07:11:35;;;;;;;;;;;18.90;99.90;;;;;;5093309;28;19908;-76
2021/08/20 07:14:00;;;;;;;;;;;18.90;99.90;;;;;;5093130;28;20014;-77
2021/08/20 07:16:26;;;;;;;;;;;19.10;99.90;;;;;;5091387;28;19912;-76
2021/08/20 07:18:52;;;;;;;;;;;19.60;99.90;;;;;;5093203;28;19908;-76
2021/08/20 07:21:17;;;;;;;;;;;20.00;99.90;;;;;;5093222;28;19983;-76
2021/08/20 07:23:43;;;;;;;;;;;20.70;99.90;;;;;;5092976;28;19912;-76
2021/08/20 07:26:09;;;;;;;;;;;21.80;99.90;;;;;;5086367;28;19963;-77
2021/08/20 07:28:34;;;;;;;;;;;22.90;99.90;;;;;;5092780;28;19908;-76
2021/08/20 07:31:00;;;;;;;;;;;24.00;99.90;;;;;;5092730;28;20446;-76
2021/08/20 07:33:25;;;;;;;;;;;24.30;99.90;;;;;;5091355;28;19912;-76
2021/08/20 07:35:51;;;;;;;;;;;24.40;99.90;;;;;;5092469;28;19908;-77
2021/08/20 07:38:16;;;;;;;;;;;23.80;99.90;;;;;;5092401;28;19915;-76
2021/08/20 07:40:42;;;;;;;;;;;24.00;99.90;;;;;;5092531;28;19953;-76
2021/08/20 07:43:08;;;;;;;;;;;24.40;99.90;;;;;;5092691;28;20398;-76
2021/08/20 07:45:33;;;;;;;;;;;25.10;99.90;;;;;;5092231;28;19916;-76
2021/08/20 07:47:59;;;;;;;;;;;25.60;99.90;;;;;;5090224;28;19912;-76
2021/08/20 07:50:25;;;;;;;;;;;25.90;99.90;;;;;;5092539;28;19908;-76
2021/08/20 07:52:50;;;;;;;;;;;26.20;99.90;;;;;;5092457;28;20277;-76
2021/08/20 07:55:17;;;;;;;;;;;26.40;99.90;;;;;;5086252;28;19931;-76
2021/08/20 07:57:43;;;;;;;;;;;26.70;99.90;;;;;;5091800;28;19908;-77
2021/08/20 08:00:10;;;;;;;;;;;27.00;99.90;;;;;;5090854;28;19915;-76
2021/08/20 08:02:35;;;;;;;;;;;27.10;99.90;;;;;;5091379;28;20380;-77
2021/08/20 08:05:01;;;;;;;;;;;26.70;99.90;;;;;;5092802;28;19955;-76
2021/08/20 08:07:26;;;;;;;;;;;26.20;99.90;;;;;;5092414;28;19908;-75
2021/08/20 08:09:52;;;;;;;;;;;26.40;99.90;;;;;;5092297;28;19908;-76
2021/08/20 08:12:17;;;;;;;;;;;26.90;99.90;;;;;;5092182;28;19934;-76
2021/08/20 08:14:43;;;;;;;;;;;27.30;99.90;;;;;;5092196;28;19913;-76
2021/08/20 08:17:08;;;;;;;;;;;27.40;99.90;;;;;;5091738;28;19912;-76
2021/08/20 08:19:34;;;;;;;;;;;27.50;99.90;;;;;;5091711;28;19919;-76
2021/08/20 08:21:59;;;;;;;;;;;27.70;99.40;;;;;;5091770;28;19908;-76
2021/08/20 08:24:26;;;;;;;;;;;28.20;98.90;;;;;;5087961;28;19959;-76
2021/08/20 08:26:52;;;;;;;;;;;28.20;98.00;;;;;;5089651;28;19908;-76
2021/08/20 08:29:17;;;;;;;;;;;27.40;98.80;;;;;;5091830;28;19931;-76
2021/08/20 08:31:43;;;;;;;;;;;27.00;99.90;;;;;;5092557;28;20558;-76
2021/08/20 08:34:08;;;;;;;;;;;26.80;99.70;;;;;;5091138;28;19957;-76
2021/08/20 08:36:35;;;;;;;;;;;27.20;98.00;;;;;;5091639;28;19942;-75
2021/08/20 08:39:00;;;;;;;;;;;27.70;97.60;;;;;;5091442;28;19908;-76
2021/08/20 08:41:26;;;;;;;;;;;28.10;99.20;;;;;;5090331;28;19915;-76
2021/08/20 08:43:51;;;;;;;;;;;28.70;97.60;;;;;;5110200;28;19908;-76
2021/08/20 08:46:19;;;;;;;;;;;29.20;98.50;;;;;;5105746;28;19916;-76
2021/08/20 08:48:45;;;;;;;;;;;28.80;95.60;;;;;;5091944;28;19916;-76
2021/08/20 08:51:11;;;;;;;;;;;27.80;96.00;;;;;;5091695;28;19915;-76
2021/08/20 08:53:37;;;;;;;;;;;26.90;98.20;;;;;;5091976;28;20379;-76
2021/08/20 08:56:02;;;;;;;;;;;26.00;99.50;;;;;;5085214;28;19912;-76
2021/08/20 08:58:28;;;;;;;;;;;25.00;99.90;;;;;;5088603;28;20181;-76
2021/08/20 09:00:53;;;;;;;;;;;24.20;99.90;;;;;;5091664;28;20391;-76
2021/08/20 09:03:23;;;;;;;;;;;23.10;99.90;;;;;;5091555;28;20010;-76
2021/08/20 09:05:48;;;;;;;;;;;22.60;99.90;;;;;;5091555;28;19915;-76
2021/08/20 09:08:15;;;;;;;;;;;22.20;99.90;;;;;;5091082;28;19916;-75
2021/08/20 09:11:13;;;;;;;;;;;21.70;99.90;;;;;;5091325;28;19954;-76
2021/08/20 09:13:38;;;;;;;;;;;21.40;99.90;;;;;;5091294;28;20003;-76
2021/08/20 09:16:06;;;;;;;;;;;21.00;99.90;;;;;;5091614;28;19912;-76
2021/08/20 09:18:31;;;;;;;;;;;21.00;99.90;;;;;;5091682;28;20345;-76
2021/08/20 09:20:57;;;;;;;;;;;21.20;99.90;;;;;;5091106;28;19948;-76
2021/08/20 09:23:23;;;;;;;;;;;21.50;99.90;;;;;;5087135;28;20418;-76
2021/08/20 09:25:50;;;;;;;;;;;21.50;99.90;;;;;;5091081;28;19962;-76
2021/08/20 09:28:18;;;;;;;;;;;21.80;99.90;;;;;;5090703;28;19998;-76
2021/08/20 09:30:56;;;;;;;;;;;22.70;99.90;;;;;;5091054;28;19955;-76
2021/08/20 09:33:26;;;;;;;;;;;23.10;99.90;;;;;;5093636;28;19912;-76
2021/08/20 09:36:03;;;;;;;;;;;23.00;99.90;;;;;;5094448;28;19947;-76
2021/08/20 09:38:29;;;;;;;;;;;23.80;99.90;;;;;;5095008;28;19950;-76
2021/08/20 09:40:58;;;;;;;;;;;24.50;99.90;;;;;;5094957;28;19938;-76
2021/08/20 09:43:29;;;;;;;;;;;25.30;99.90;;;;;;5094930;28;19927;-76
2021/08/20 09:45:55;;;;;;;;;;;26.00;99.90;;;;;;5091515;28;19916;-76
2021/08/20 09:48:37;;;;;;;;;;;26.90;99.90;;;;;;5087862;28;19937;-76
2021/08/20 09:51:03;;;;;;;;;;;27.70;99.90;;;;;;5094790;28;20333;-76
2021/08/20 09:53:28;;;;;;;;;;;28.50;99.20;;;;;;5091299;28;20019;-76
2021/08/20 09:55:54;;;;;;;;;;;28.20;98.10;;;;;;5089026;28;19912;-76
2021/08/20 09:58:20;;;;;;;;;;;27.90;99.20;;;;;;5094377;28;19943;-76
2021/08/20 10:00:47;;;;;;;;;;;27.70;98.30;;;;;;5092620;28;20162;-76
2021/08/20 10:03:15;;;;;;;;;;;27.20;98.80;;;;;;5094434;28;20391;-76
2021/08/20 10:05:43;;;;;;;;;;;27.00;98.70;;;;;;5094636;28;20381;-76
2021/08/20 10:08:12;;;;;;;;;;;27.20;98.10;;;;;;5094273;28;19908;-76
2021/08/20 10:10:41;;;;;;;;;;;27.60;95.30;;;;;;5094521;28;20003;-76
2021/08/20 10:13:08;;;;;;;;;;;27.90;97.40;;;;;;5094428;28;19912;-76
2021/08/20 10:15:34;;;;;;;;;;;28.80;97.10;;;;;;5094354;28;19912;-76
2021/08/20 10:18:03;;;;;;;;;;;29.10;95.60;;;;;;5092760;28;20284;-76
2021/08/20 10:20:29;;;;;;;;;;;29.30;95.00;;;;;;5089003;28;19934;-76
2021/08/20 10:22:54;;;;;;;;;;;29.80;97.00;;;;;;5094299;28;20452;-76
2021/08/20 10:25:20;;;;;;;;;;;30.20;93.90;;;;;;5094290;28;20376;-76
2021/08/20 10:27:45;;;;;;;;;;;30.20;95.20;;;;;;5093791;28;19908;-76
2021/08/20 10:30:12;;;;;;;;;;;30.20;93.70;;;;;;5094177;28;19961;-76
2021/08/20 10:32:57;;;;;;;;;;;29.30;93.80;;;;;;5087148;28;19913;-76
2021/08/20 10:35:42;;;;;;;;;;;28.90;93.60;;;;;;5102828;28;19918;-76
2021/08/20 10:38:27;;;;;;;;;;;28.20;94.50;;;;;;5094127;28;19991;-77
2021/08/20 10:41:08;;;;;;;;;;;27.80;94.00;;;;;;5093890;28;19908;-76
2021/08/20 10:43:49;;;;;;;;;;;26.40;94.60;;;;;;5093554;28;19915;-76
2021/08/20 10:46:33;;;;;;;;;;;25.30;96.90;;;;;;5091874;28;19930;-76
2021/08/20 10:49:14;;;;;;;;;;;24.50;96.90;;;;;;5087494;28;20021;-76
2021/08/20 10:51:49;;;;;;;;;;;23.80;98.70;;;;;;5102337;28;20329;-76
2021/08/20 10:54:15;;;;;;;;;;;23.50;98.60;;;;;;5114096;28;19916;-76
2021/08/20 10:56:40;;;;;;;;;;;23.30;99.50;;;;;;5099243;28;19908;-76
2021/08/20 10:59:06;;;;;;;;;;;23.40;99.90;;;;;;5093056;28;19908;-76
2021/08/20 11:01:32;;;;;;;;;;;24.30;99.90;;;;;;5093344;28;20395;-76
2021/08/20 11:03:59;;;;;;;;;;;25.10;98.50;;;;;;5092134;28;20347;-76
2021/08/20 11:06:43;;;;;;;;;;;25.30;99.30;;;;;;5092995;28;19970;-76
2021/08/20 11:09:31;;;;;;;;;;;25.50;96.30;;;;;;5093450;28;19918;-76
2021/08/20 11:11:58;;;;;;;;;;;26.10;98.70;;;;;;5092980;28;19957;-76
2021/08/20 11:14:24;;;;;;;;;;;26.70;94.90;;;;;;5093278;28;19908;-76
2021/08/20 11:16:50;;;;;;;;;;;27.20;97.50;;;;;;5092870;28;19908;-76
2021/08/20 11:19:34;;;;;;;;;;;27.60;94.40;;;;;;5093069;28;19914;-76
2021/08/20 11:22:16;;;;;;;;;;;28.40;94.80;;;;;;5092780;28;19908;-77
2021/08/20 11:25:02;;;;;;;;;;;28.90;93.20;;;;;;5093253;28;19908;-76
2021/08/20 11:27:27;;;;;;;;;;;29.20;92.10;;;;;;5090104;28;19908;-76
2021/08/20 11:29:53;;;;;;;;;;;29.30;93.30;;;;;;5092819;28;19915;-77
2021/08/20 11:32:18;;;;;;;;;;;29.90;92.80;;;;;;5087898;28;19999;-76
2021/08/20 11:34:53;;;;;;;;;;;30.10;91.20;;;;;;5089424;28;19959;-76
2021/08/20 11:37:19;;;;;;;;;;;30.20;92.30;;;;;;5092414;28;19908;-76
2021/08/20 11:40:05;;;;;;;;;;;30.60;92.00;;;;;;5092831;28;19912;-76
2021/08/20 11:42:31;;;;;;;;;;;30.40;90.90;;;;;;5092493;28;19912;-76
2021/08/20 11:44:56;;;;;;;;;;;29.80;90.00;;;;;;5092476;28;20412;-76
2021/08/20 11:47:22;;;;;;;;;;;29.40;91.80;;;;;;5090394;28;20280;-76
2021/08/20 11:49:47;;;;;;;;;;;29.10;91.70;;;;;;5092393;28;20381;-76
2021/08/20 11:52:12;;;;;;;;;;;29.40;91.50;;;;;;5092288;28;19918;-76
2021/08/20 11:54:39;;;;;;;;;;;29.80;91.10;;;;;;5091749;28;19908;-76
2021/08/20 11:57:05;;;;;;;;;;;29.70;91.80;;;;;;5089584;28;20006;-76
2021/08/20 11:59:30;;;;;;;;;;;29.50;91.00;;;;;;5092279;28;19960;-76
2021/08/20 12:01:57;;;;;;;;;;;29.90;90.00;;;;;;5078093;28;19908;-76
2021/08/20 12:04:23;;;;;;;;;;;30.00;88.40;;;;;;5092360;28;19931;-76
2021/08/20 12:06:48;;;;;;;;;;;30.20;89.60;;;;;;5092142;28;20361;-76
2021/08/20 12:09:15;;;;;;;;;;;29.90;86.80;;;;;;5092534;28;19912;-76
2021/08/20 12:11:42;;;;;;;;;;;29.20;89.00;;;;;;5092548;28;19908;-76
2021/08/20 12:14:14;;;;;;;;;;;28.00;90.30;;;;;;5092373;28;20387;-76
2021/08/20 12:16:41;;;;;;;;;;;26.90;92.90;;;;;;5092203;28;19951;-76
2021/08/20 12:19:12;;;;;;;;;;;26.10;92.60;;;;;;5092242;28;19908;-76
2021/08/20 12:21:38;;;;;;;;;;;25.30;94.60;;;;;;5091979;28;20002;-76
2021/08/20 12:24:07;;;;;;;;;;;25.00;94.80;;;;;;5091990;28;20057;-76
2021/08/20 12:26:32;;;;;;;;;;;24.90;95.60;;;;;;5089316;28;19912;-76
2021/08/20 12:28:58;;;;;;;;;;;24.90;95.60;;;;;;5090385;28;19912;-76
2021/08/20 12:31:24;;;;;;;;;;;24.80;94.90;;;;;;5091972;28;19919;-76
2021/08/20 12:34:03;;;;;;;;;;;25.30;96.30;;;;;;5084554;28;20011;-76
2021/08/20 12:36:29;;;;;;;;;;;26.00;94.20;;;;;;5091905;28;19953;-76
2021/08/20 12:39:11;;;;;;;;;;;26.60;93.30;;;;;;5091896;28;19908;-76
2021/08/20 12:41:38;;;;;;;;;;;26.90;93.40;;;;;;5092026;28;19908;-76
2021/08/20 12:44:04;;;;;;;;;;;27.10;92.90;;;;;;5091854;28;19908;-77
2021/08/20 12:46:33;;;;;;;;;;;27.20;93.10;;;;;;5096935;28;20075;-76
2021/08/20 12:49:01;;;;;;;;;;;27.30;92.30;;;;;;5111738;28;19908;-75
2021/08/20 12:51:27;;;;;;;;;;;27.20;92.70;;;;;;5111751;28;19933;-76
2021/08/20 12:54:00;;;;;;;;;;;26.70;92.60;;;;;;5111439;28;20384;-76
2021/08/20 12:56:35;;;;;;;;;;;26.20;93.50;;;;;;5100577;28;19961;-75
2021/08/20 12:59:02;;;;;;;;;;;25.60;93.40;;;;;;5091226;28;19912;-76
2021/08/20 13:01:28;;;;;;;;;;;25.50;94.90;;;;;;5091241;28;19951;-75
2021/08/20 13:03:53;;;;;;;;;;;25.80;95.70;;;;;;5091203;28;19939;-76
2021/08/20 13:06:19;;;;;;;;;;;26.20;95.30;;;;;;5088905;28;20014;-75
2021/08/20 13:08:44;;;;;;;;;;;26.40;94.40;;;;;;5089601;28;19908;-76
2021/08/20 13:11:10;;;;;;;;;;;26.60;95.40;;;;;;5091270;28;20546;-75
2021/08/20 13:13:36;;;;;;;;;;;26.60;93.90;;;;;;5090982;28;19919;-75
2021/08/20 13:16:01;;;;;;;;;;;26.40;94.90;;;;;;5090872;28;19912;-75
2021/08/20 13:18:27;;;;;;;;;;;26.20;94.30;;;;;;5089849;28;19995;-75
2021/08/20 13:20:53;;;;;;;;;;;26.00;94.10;;;;;;5089667;28;20289;-75
2021/08/20 13:23:19;;;;;;;;;;;25.90;93.50;;;;;;5090958;28;20327;-75
2021/08/20 13:25:44;;;;;;;;;;;25.90;94.60;;;;;;5088875;28;19916;-75
2021/08/20 13:28:10;;;;;;;;;;;25.90;93.80;;;;;;5089372;28;19915;-75
2021/08/20 13:30:36;;;;;;;;;;;26.30;93.20;;;;;;5090921;28;19909;-75
2021/08/20 13:33:02;;;;;;;;;;;26.80;94.10;;;;;;5089405;28;19952;-75
2021/08/20 13:35:28;;;;;;;;;;;27.20;92.80;;;;;;5090800;28;19944;-75
2021/08/20 13:37:53;;;;;;;;;;;27.30;93.00;;;;;;5090767;28;19908;-75
2021/08/20 13:40:19;;;;;;;;;;;27.10;93.50;;;;;;5091043;28;19915;-75
2021/08/20 13:42:44;;;;;;;;;;;26.70;92.50;;;;;;5090973;28;20010;-75
2021/08/20 13:45:11;;;;;;;;;;;26.10;92.80;;;;;;5090938;28;19912;-74
2021/08/20 13:47:36;;;;;;;;;;;25.60;94.40;;;;;;5089214;28;20376;-75
2021/08/20 13:50:04;;;;;;;;;;;25.70;94.70;;;;;;5091238;28;19914;-75
2021/08/20 13:52:30;;;;;;;;;;;25.50;93.60;;;;;;5089611;28;19974;-74
2021/08/20 13:54:55;;;;;;;;;;;25.40;94.40;;;;;;5091321;28;19912;-75
2021/08/20 13:57:21;;;;;;;;;;;25.40;94.70;;;;;;5095009;28;19912;-75
2021/08/20 13:59:46;;;;;;;;;;;25.30;94.70;;;;;;5111591;28;20275;-74
2021/08/20 14:02:12;;;;;;;;;;;25.00;94.70;;;;;;5091806;28;20003;-75
2021/08/20 14:04:37;;;;;;;;;;;24.50;94.50;;;;;;5090534;28;19950;-75
2021/08/20 14:07:04;;;;;;;;;;;24.30;96.70;;;;;;5090837;28;19909;-75
2021/08/20 14:09:31;;;;;;;;;;;24.30;95.70;;;;;;5091015;28;20011;-76
2021/08/20 14:11:56;;;;;;;;;;;24.50;95.90;;;;;;5090874;28;19915;-75
2021/08/20 14:14:22;;;;;;;;;;;24.90;95.20;;;;;;5090765;28;19912;-75